createdAt,value
2019-01-17T10:06:52.540Z,5.96
2019-01-17T10:09:22.828Z,5.89
2019-01-17T10:11:53.042Z,5.83
2019-01-17T10:14:23.316Z,5.75
2019-01-17T10:17:27.254Z,5.66
2019-01-17T10:20:35.494Z,5.56
2019-01-17T10:23:56.582Z,5.41
2019-01-17T10:27:20.034Z,5.16
2019-01-17T10:30:34.719Z,4.86
2019-01-17T10:33:37.944Z,4.66
2019-01-17T10:37:23.066Z,4.57
2019-01-17T10:40:39.466Z,4.46
2019-01-17T10:43:25.192Z,4.44
2019-01-17T10:46:27.116Z,4.46
2019-01-17T10:50:04.636Z,4.50
2019-01-17T10:54:04.444Z,4.46
2019-01-17T10:57:22.103Z,4.38
2019-01-17T11:01:02.754Z,4.27
2019-01-17T11:04:22.837Z,4.18
2019-01-17T11:07:50.346Z,4.14
2019-01-17T11:11:15.845Z,4.18
2019-01-17T11:14:39.206Z,4.22
2019-01-17T11:17:59.826Z,4.27
2019-01-17T11:21:33.434Z,4.34
2019-01-17T11:24:30.628Z,4.42
2019-01-17T11:28:07.554Z,4.52
2019-01-17T11:31:36.131Z,4.63
2019-01-17T11:34:33.431Z,4.78
2019-01-17T11:38:00.579Z,4.94
2019-01-17T11:41:31.057Z,5.08
2019-01-17T11:45:13.375Z,5.16
2019-01-17T11:48:22.326Z,5.15
2019-01-17T11:51:28.883Z,5.16
2019-01-17T11:54:39.020Z,5.16
2019-01-17T11:58:07.128Z,5.22
2019-01-17T12:01:18.952Z,5.31
2019-01-17T12:04:31.872Z,5.33
2019-01-17T12:07:07.931Z,5.28
2019-01-17T12:09:38.251Z,5.19
2019-01-17T12:12:08.946Z,5.26
2019-01-17T12:14:39.206Z,5.37
2019-01-17T12:17:09.317Z,5.47
2019-01-17T12:19:39.647Z,5.57
2019-01-17T12:22:09.941Z,5.69
2019-01-17T12:24:40.144Z,5.79
2019-01-17T12:27:10.339Z,5.86
2019-01-17T12:29:40.539Z,5.93
2019-01-17T12:32:10.699Z,5.96
2019-01-17T12:34:40.942Z,6.02
2019-01-17T12:37:11.188Z,6.06
2019-01-17T12:39:41.329Z,5.96
2019-01-17T12:42:11.551Z,5.73
2019-01-17T12:44:41.843Z,5.51
2019-01-17T12:47:11.952Z,5.30
2019-01-17T12:49:42.313Z,5.15
2019-01-17T12:52:12.473Z,5.09
2019-01-17T12:54:42.778Z,5.00
2019-01-17T12:57:13.027Z,4.92
2019-01-17T12:59:43.266Z,4.79
2019-01-17T13:02:13.478Z,4.68
2019-01-17T13:04:43.818Z,4.57
2019-01-17T13:07:14.104Z,4.50
2019-01-17T13:09:44.415Z,4.43
2019-01-17T13:12:14.710Z,4.48
2019-01-17T13:14:44.888Z,4.56
2019-01-17T13:17:15.180Z,4.63
2019-01-17T13:19:45.405Z,4.66
2019-01-17T13:22:15.703Z,4.72
2019-01-17T13:24:45.940Z,4.75
2019-01-17T13:27:16.089Z,4.80
2019-01-17T13:29:46.166Z,4.87
2019-01-17T13:32:16.430Z,4.93
2019-01-17T13:34:46.742Z,5.03
2019-01-17T13:37:17.027Z,5.14
2019-01-17T13:39:47.373Z,5.27
2019-01-17T13:42:20.919Z,5.34
2019-01-17T13:44:49.468Z,5.40
2019-01-17T13:47:20.079Z,5.43
2019-01-17T13:49:50.350Z,5.45
2019-01-17T13:52:20.640Z,5.43
2019-01-17T13:54:50.919Z,5.37
2019-01-17T13:57:21.081Z,5.31
2019-01-17T13:59:51.312Z,5.28
2019-01-17T14:02:21.598Z,5.26
2019-01-17T14:04:51.810Z,5.22
2019-01-17T14:07:22.061Z,5.18
2019-01-17T14:09:52.298Z,5.18
2019-01-17T14:12:22.540Z,5.21
2019-01-17T14:14:52.766Z,5.25
2019-01-17T14:17:23.032Z,5.30
2019-01-17T14:19:53.255Z,5.39
2019-01-17T14:22:23.615Z,5.42
2019-01-17T14:24:56.871Z,5.39
2019-01-17T14:27:27.123Z,5.33
2019-01-17T14:30:01.906Z,5.23
2019-01-17T14:32:32.173Z,4.97
2019-01-17T14:35:02.329Z,4.37
2019-01-17T14:37:34.371Z,3.77
2019-01-17T14:40:04.986Z,3.41
2019-01-17T14:42:35.314Z,3.21
2019-01-17T14:45:09.104Z,3.12
2019-01-17T14:47:39.419Z,3.08
2019-01-17T14:50:15.074Z,3.08
2019-01-17T14:52:45.425Z,3.07
2019-01-17T14:55:15.692Z,3.00
2019-01-17T14:57:46.047Z,2.93
2019-01-17T15:00:19.182Z,2.88
2019-01-17T15:02:49.480Z,2.82
2019-01-17T15:05:19.826Z,2.77
2019-01-17T15:07:50.007Z,2.73
2019-01-17T15:10:25.646Z,2.70
2019-01-17T15:12:56.032Z,2.65
2019-01-17T15:15:26.317Z,2.61
2019-01-17T15:17:58.016Z,2.59
2019-01-17T15:20:28.355Z,2.57
2019-01-17T15:22:58.623Z,2.54
2019-01-17T15:25:28.832Z,2.54
2019-01-17T15:27:59.190Z,2.51
2019-01-17T15:30:29.770Z,2.52
2019-01-17T15:33:00.179Z,2.50
2019-01-17T15:35:30.491Z,2.50
2019-01-17T15:38:00.685Z,2.50
2019-01-17T15:40:32.333Z,2.53
2019-01-17T15:43:03.232Z,2.51
2019-01-17T15:45:33.523Z,2.54
2019-01-17T15:48:03.754Z,2.59
2019-01-17T15:50:34.074Z,2.67
2019-01-17T15:53:04.328Z,2.71
2019-01-17T15:55:34.529Z,2.78
2019-01-17T15:58:04.850Z,2.85
2019-01-17T16:00:35.479Z,2.91
2019-01-17T16:03:06.738Z,2.93
2019-01-17T16:05:37.064Z,2.97
2019-01-17T16:08:07.322Z,3.00
2019-01-17T16:10:40.083Z,3.02
2019-01-17T16:13:10.181Z,3.00
2019-01-17T16:15:40.419Z,2.99
2019-01-17T16:18:10.566Z,2.96
2019-01-17T16:20:40.740Z,2.89
2019-01-17T16:23:10.982Z,2.80
2019-01-17T16:25:41.175Z,2.70
2019-01-17T16:28:11.521Z,2.63
2019-01-17T16:30:41.627Z,2.60
2019-01-17T16:33:11.819Z,2.56
2019-01-17T16:35:42.114Z,2.50
2019-01-17T16:38:17.085Z,2.48
2019-01-17T16:40:47.431Z,2.43
2019-01-17T16:43:17.763Z,2.42
2019-01-17T16:45:48.490Z,2.41
2019-01-17T16:48:18.763Z,2.38
2019-01-17T16:50:48.990Z,2.46
2019-01-17T16:53:19.072Z,2.56
2019-01-17T16:55:49.392Z,2.68
2019-01-17T16:58:19.604Z,2.80
2019-01-17T17:00:50.018Z,2.86
2019-01-17T17:03:20.265Z,2.91
2019-01-17T17:06:00.913Z,2.90
2019-01-17T17:08:31.507Z,2.85
2019-01-17T17:11:01.964Z,2.74
2019-01-17T17:13:32.491Z,2.68
2019-01-17T17:16:03.087Z,2.64
2019-01-17T17:18:33.565Z,2.60
2019-01-17T17:21:04.183Z,2.61
2019-01-17T17:23:34.728Z,2.62
2019-01-17T17:26:05.294Z,2.69
2019-01-17T17:28:35.864Z,2.76
2019-01-17T17:31:06.829Z,2.78
2019-01-17T17:33:37.327Z,2.86
2019-01-17T17:36:07.802Z,2.92
2019-01-17T17:38:38.408Z,2.95
2019-01-17T17:41:08.925Z,2.95
2019-01-17T17:43:39.425Z,2.97
2019-01-17T17:46:09.771Z,2.93
2019-01-17T17:48:40.228Z,2.93
2019-01-17T17:51:10.716Z,2.90
2019-01-17T17:53:40.971Z,2.91
2019-01-17T17:56:12.823Z,2.92
2019-01-17T17:58:43.155Z,2.91
2019-01-17T18:01:24.721Z,2.91
2019-01-17T18:03:54.985Z,2.95
2019-01-17T18:06:25.593Z,3.01
2019-01-17T18:08:55.947Z,3.06
2019-01-17T18:11:26.155Z,3.07
2019-01-17T18:13:56.301Z,3.01
2019-01-17T18:16:26.598Z,2.89
2019-01-17T18:18:56.854Z,2.77
2019-01-17T18:21:27.072Z,2.68
2019-01-17T18:23:57.294Z,2.63
2019-01-17T18:26:27.614Z,2.57
2019-01-17T18:28:57.929Z,2.51
2019-01-17T18:31:28.347Z,2.45
2019-01-17T18:33:58.553Z,2.40
2019-01-17T18:36:28.726Z,2.36
2019-01-17T18:38:59.024Z,2.36
2019-01-17T18:41:29.268Z,2.35
2019-01-17T18:43:59.595Z,2.35
2019-01-17T18:46:29.841Z,2.37
2019-01-17T18:49:00.153Z,2.38
2019-01-17T18:51:30.398Z,2.34
2019-01-17T18:54:00.706Z,2.34
2019-01-17T18:56:31.043Z,2.29
2019-01-17T18:59:01.259Z,2.30
2019-01-17T19:01:31.613Z,2.32
2019-01-17T19:04:02.183Z,2.36
2019-01-17T19:06:32.652Z,2.37
2019-01-17T19:09:03.375Z,2.44
2019-01-17T19:11:33.918Z,2.53
2019-01-17T19:14:07.405Z,2.61
2019-01-17T19:16:38.003Z,2.69
2019-01-17T19:19:08.542Z,2.74
2019-01-17T19:21:39.231Z,2.79
2019-01-17T19:24:09.812Z,2.88
2019-01-17T19:26:49.661Z,2.95
2019-01-17T19:29:20.428Z,2.99
2019-01-17T19:31:51.068Z,3.03
2019-01-17T19:34:21.811Z,3.03
2019-01-17T19:36:52.378Z,2.93
2019-01-17T19:39:23.017Z,2.85
2019-01-17T19:41:53.653Z,2.80
2019-01-17T19:44:24.809Z,2.80
2019-01-17T19:46:55.520Z,2.82
2019-01-17T19:49:26.061Z,2.78
2019-01-17T19:51:56.820Z,2.81
2019-01-17T19:54:27.307Z,2.78
2019-01-17T19:56:57.738Z,2.76
2019-01-17T19:59:28.166Z,2.74
2019-01-17T20:01:58.603Z,2.68
2019-01-17T20:04:29.395Z,2.63
2019-01-17T20:06:59.871Z,2.58
2019-01-17T20:09:30.546Z,2.50
2019-01-17T20:12:01.153Z,2.43
2019-01-17T20:14:31.738Z,2.42
2019-01-17T20:17:02.283Z,2.42
2019-01-17T20:19:33.082Z,2.46
2019-01-17T20:22:03.688Z,2.50
2019-01-17T20:24:34.277Z,2.58
2019-01-17T20:27:05.445Z,2.61
2019-01-17T20:29:36.061Z,2.61
2019-01-17T20:32:07.307Z,2.68
2019-01-17T20:34:37.891Z,2.71
2019-01-17T20:37:08.403Z,2.74
2019-01-17T20:39:39.145Z,2.74
2019-01-17T20:42:09.621Z,2.80
2019-01-17T20:44:40.170Z,2.81
2019-01-17T20:47:10.872Z,2.78
2019-01-17T20:49:41.509Z,2.74
2019-01-17T20:52:12.192Z,2.70
2019-01-17T20:54:42.916Z,2.66
2019-01-17T20:57:13.965Z,2.56
2019-01-17T20:59:44.501Z,2.44
2019-01-17T21:02:20.818Z,2.39
2019-01-17T21:04:53.212Z,2.36
2019-01-17T21:07:23.740Z,2.34
2019-01-17T21:09:54.346Z,2.30
2019-01-17T21:12:24.855Z,2.26
2019-01-17T21:14:55.430Z,2.24
2019-01-17T21:17:25.830Z,2.16
2019-01-17T21:19:56.247Z,2.09
2019-01-17T21:22:26.698Z,2.01
2019-01-17T21:24:57.325Z,1.99
2019-01-17T21:27:27.918Z,1.94
2019-01-17T21:29:59.604Z,1.88
2019-01-17T21:32:30.273Z,1.88
2019-01-17T21:35:00.831Z,1.88
2019-01-17T21:37:31.307Z,1.96
2019-01-17T21:40:04.177Z,2.04
2019-01-17T21:42:34.721Z,2.16
2019-01-17T21:45:06.776Z,2.32
2019-01-17T21:47:37.280Z,2.46
2019-01-17T21:50:11.156Z,2.48
2019-01-17T21:52:41.573Z,2.38
2019-01-17T21:55:18.408Z,2.27
2019-01-17T21:57:49.061Z,2.21
2019-01-17T22:00:25.507Z,2.11
2019-01-17T22:02:56.038Z,1.98
2019-01-17T22:05:26.675Z,1.86
2019-01-17T22:07:57.297Z,1.77
2019-01-17T22:10:27.865Z,1.74
2019-01-17T22:12:58.495Z,1.67
2019-01-17T22:15:29.120Z,1.64
2019-01-17T22:17:59.625Z,1.56
2019-01-17T22:20:30.556Z,1.49
2019-01-17T22:23:01.457Z,1.40
2019-01-17T22:25:42.156Z,1.36
2019-01-17T22:28:14.521Z,1.33
2019-01-17T22:30:44.996Z,1.30
2019-01-17T22:33:15.539Z,1.27
2019-01-17T22:35:46.025Z,1.21
2019-01-17T22:38:18.655Z,1.17
2019-01-17T22:40:50.210Z,1.14
2019-01-17T22:43:20.673Z,1.11
2019-01-17T22:45:51.999Z,1.08
2019-01-17T22:48:22.855Z,1.04
2019-01-17T22:50:53.400Z,1.07
2019-01-17T22:53:23.671Z,1.04
2019-01-17T22:55:54.017Z,1.04
2019-01-17T22:58:24.362Z,1.03
2019-01-17T23:01:34.796Z,0.99
2019-01-17T23:04:07.363Z,1.02
2019-01-17T23:06:37.607Z,1.01
2019-01-17T23:09:09.596Z,1.00
2019-01-17T23:11:39.911Z,0.98
2019-01-17T23:14:10.144Z,0.93
2019-01-17T23:16:40.368Z,0.94
2019-01-17T23:19:10.451Z,0.95
2019-01-17T23:21:40.615Z,0.94
2019-01-17T23:24:10.783Z,0.94
2019-01-17T23:26:41.069Z,0.92
2019-01-17T23:29:15.941Z,0.87
2019-01-17T23:31:43.259Z,0.83
2019-01-17T23:34:13.501Z,0.79
2019-01-17T23:36:43.681Z,0.75
2019-01-17T23:39:13.972Z,0.71
2019-01-17T23:41:47.356Z,0.70
2019-01-17T23:44:17.417Z,0.69
2019-01-17T23:46:47.690Z,0.67
2019-01-17T23:49:17.978Z,0.66
2019-01-17T23:51:50.344Z,0.66
2019-01-17T23:54:20.668Z,0.61
2019-01-17T23:56:51.046Z,0.57
2019-01-17T23:59:22.728Z,0.55
